Time;durP1;ratioP1;P1;durP2;ratioP2;P2;SDS_P1;SDS_P2;PMS_P1;PMS_P2;Temp;Humidity;BMP_temperature;BMP_pressure;BME280_temperature;BME280_humidity;BME280_pressure;Samples;Min_cycle;Max_cycle;Signal;HPM_P1;HPM_P2
2024/03/30 00:01:29;;;;;;;0.38;0.30;;;11.30;81.60;;;;;;5035489;28;20049;-72
2024/03/30 00:03:55;;;;;;;0.22;0.20;;;11.40;81.70;;;;;;5035506;28;20045;-72
2024/03/30 00:06:21;;;;;;;0.20;0.20;;;11.40;81.70;;;;;;5052009;28;20060;-72
2024/03/30 00:08:46;;;;;;;0.20;0.20;;;11.40;81.70;;;;;;5051773;28;20041;-72
2024/03/30 00:11:12;;;;;;;0.10;0.10;;;11.30;81.70;;;;;;5051845;28;20051;-72
2024/03/30 00:13:38;;;;;;;0.28;0.28;;;11.30;81.70;;;;;;5034944;28;20045;-72
2024/03/30 00:16:08;;;;;;;0.20;0.20;;;11.30;81.70;;;;;;5035120;28;20104;-72
2024/03/30 00:18:35;;;;;;;0.20;0.20;;;11.30;81.70;;;;;;5018471;28;20041;-72
2024/03/30 00:21:03;;;;;;;0.20;0.20;;;11.30;81.70;;;;;;5035028;28;20048;-72
2024/03/30 00:23:29;;;;;;;0.17;0.17;;;11.30;81.70;;;;;;5051684;28;20525;-72
2024/03/30 00:25:56;;;;;;;0.73;0.40;;;11.30;81.80;;;;;;5018488;28;20107;-73
2024/03/30 00:28:22;;;;;;;0.57;0.30;;;11.20;81.70;;;;;;5051638;28;20049;-72
2024/03/30 00:30:47;;;;;;;0.25;0.22;;;11.20;81.60;;;;;;5101147;28;20086;-73
2024/03/30 00:33:13;;;;;;;0.38;0.30;;;11.20;81.60;;;;;;5114362;28;20490;-73
2024/03/30 00:35:45;;;;;;;0.20;0.20;;;11.20;81.50;;;;;;5114131;28;20043;-72
2024/03/30 00:38:13;;;;;;;0.20;0.20;;;11.30;81.50;;;;;;5114317;28;20035;-72
2024/03/30 00:40:40;;;;;;;0.20;0.20;;;11.30;81.40;;;;;;5114114;28;20047;-73
2024/03/30 00:43:07;;;;;;;0.30;0.30;;;11.20;81.40;;;;;;5095975;28;20074;-72
2024/03/30 00:45:37;;;;;;;0.30;0.30;;;11.20;81.40;;;;;;5094333;28;20036;-72
2024/03/30 00:48:03;;;;;;;0.10;0.10;;;11.20;81.40;;;;;;5114165;28;20073;-73
2024/03/30 00:50:29;;;;;;;0.10;0.10;;;11.20;81.50;;;;;;5113829;28;20055;-73
2024/03/30 00:52:55;;;;;;;0.20;0.20;;;11.20;81.50;;;;;;5114233;28;20039;-72
2024/03/30 00:55:21;;;;;;;0.15;0.15;;;11.20;82.20;;;;;;5113938;28;20042;-72
2024/03/30 00:57:46;;;;;;;0.20;0.20;;;11.20;81.60;;;;;;5093940;28;20040;-72
2024/03/30 01:00:14;;;;;;;0.15;0.15;;;11.20;81.60;;;;;;5113637;28;20115;-72
2024/03/30 01:02:41;;;;;;;0.20;0.20;;;11.10;81.60;;;;;;5114095;28;20051;-72
2024/03/30 01:05:08;;;;;;;0.30;0.10;;;11.10;81.70;;;;;;5113340;28;20038;-72
2024/03/30 01:07:34;;;;;;;0.10;0.10;;;11.10;81.80;;;;;;5114030;28;20044;-72
2024/03/30 01:10:03;;;;;;;0.13;0.13;;;11.10;81.80;;;;;;5095407;28;20126;-72
2024/03/30 01:12:30;;;;;;;0.20;0.20;;;11.00;81.90;;;;;;5094208;28;20039;-72
2024/03/30 01:14:55;;;;;;;0.17;0.17;;;11.00;82.10;;;;;;5113324;28;20421;-72
2024/03/30 01:17:21;;;;;;;0.20;0.20;;;10.90;82.10;;;;;;5113176;28;20119;-74
2024/03/30 01:19:47;;;;;;;0.10;0.10;;;10.90;82.20;;;;;;5093298;28;20035;-72
2024/03/30 01:22:14;;;;;;;0.20;0.20;;;10.90;82.40;;;;;;5113508;28;20048;-72
2024/03/30 01:24:40;;;;;;;0.20;0.20;;;10.90;82.40;;;;;;5113570;28;20088;-72
2024/03/30 01:27:14;;;;;;;0.10;0.10;;;10.80;82.40;;;;;;5050419;28;20118;-73
2024/03/30 01:29:43;;;;;;;0.30;0.30;;;10.80;82.60;;;;;;5050266;28;20040;-73
2024/03/30 01:32:10;;;;;;;0.10;0.10;;;10.70;82.60;;;;;;5034245;28;20037;-73
2024/03/30 01:34:37;;;;;;;0.10;0.10;;;10.70;82.70;;;;;;5050549;28;20402;-73
2024/03/30 01:37:02;;;;;;;0.15;0.15;;;10.70;82.70;;;;;;5050489;28;20071;-72
2024/03/30 01:39:28;;;;;;;0.30;0.30;;;10.70;82.80;;;;;;5050416;28;20099;-74
2024/03/30 01:41:54;;;;;;;0.20;0.20;;;10.70;82.90;;;;;;5034102;28;20053;-72
2024/03/30 01:44:20;;;;;;;0.20;0.20;;;10.70;83.00;;;;;;5050438;28;20040;-72
2024/03/30 01:46:49;;;;;;;0.30;0.30;;;10.60;83.00;;;;;;4993827;28;20077;-73
2024/03/30 01:49:17;;;;;;;0.30;0.30;;;10.60;83.00;;;;;;5011052;28;20049;-72
2024/03/30 01:51:44;;;;;;;0.30;0.30;;;10.60;83.10;;;;;;4994079;28;20045;-73
2024/03/30 01:54:12;;;;;;;0.20;0.20;;;10.60;83.10;;;;;;4994232;28;20510;-72
2024/03/30 01:56:39;;;;;;;0.40;0.40;;;10.60;83.20;;;;;;5010438;28;20137;-73
2024/03/30 01:59:05;;;;;;;0.30;0.30;;;10.50;83.20;;;;;;5065124;28;20045;-73
2024/03/30 02:01:31;;;;;;;0.20;0.20;;;10.50;83.20;;;;;;5036572;28;20055;-73
2024/03/30 02:03:59;;;;;;;0.50;0.30;;;10.50;83.30;;;;;;5053300;28;20106;-73
2024/03/30 02:06:27;;;;;;;0.25;0.25;;;10.40;83.30;;;;;;5069774;28;20097;-73
2024/03/30 02:08:56;;;;;;;0.17;0.17;;;10.50;83.40;;;;;;5069908;28;20075;-72
2024/03/30 02:11:22;;;;;;;0.20;0.20;;;10.40;83.40;;;;;;5070009;28;20074;-72
2024/03/30 02:13:48;;;;;;;0.20;0.20;;;10.40;83.40;;;;;;5053193;28;21046;-72
2024/03/30 02:16:14;;;;;;;0.20;0.20;;;10.40;83.40;;;;;;5053114;28;20558;-74
2024/03/30 02:18:43;;;;;;;0.30;0.30;;;10.40;83.40;;;;;;5104691;28;20051;-73
2024/03/30 02:21:09;;;;;;;0.45;0.30;;;10.40;83.50;;;;;;5077603;28;20035;-72
2024/03/30 02:23:35;;;;;;;0.20;0.20;;;10.40;83.40;;;;;;5093355;28;20096;-72
2024/03/30 02:26:00;;;;;;;0.22;0.22;;;10.40;83.50;;;;;;5094300;28;20131;-73
2024/03/30 02:28:28;;;;;;;0.20;0.20;;;10.40;83.50;;;;;;5112285;28;20430;-73
2024/03/30 02:30:54;;;;;;;0.20;0.20;;;10.40;83.50;;;;;;5112472;28;20028;-73
2024/03/30 02:33:21;;;;;;;0.20;0.20;;;10.50;83.60;;;;;;5112534;28;20058;-74
2024/03/30 02:35:47;;;;;;;0.70;0.22;;;10.40;83.60;;;;;;5077257;28;20036;-72
2024/03/30 02:38:13;;;;;;;0.22;0.10;;;10.40;83.60;;;;;;5075518;28;20086;-73
2024/03/30 02:40:49;;;;;;;0.20;0.20;;;10.40;83.60;;;;;;5076722;28;20040;-73
2024/03/30 02:43:15;;;;;;;0.30;0.30;;;10.40;83.70;;;;;;5094961;28;20062;-72
2024/03/30 02:45:43;;;;;;;0.20;0.20;;;10.40;83.70;;;;;;5112176;28;20437;-72
2024/03/30 02:48:09;;;;;;;0.82;0.30;;;10.50;83.90;;;;;;5049121;28;20049;-73
2024/03/30 02:50:35;;;;;;;0.20;0.20;;;10.50;83.90;;;;;;5049285;28;20106;-73
2024/03/30 02:53:03;;;;;;;0.25;0.25;;;10.40;83.90;;;;;;5049183;28;20051;-72
2024/03/30 02:55:29;;;;;;;0.43;0.20;;;10.30;83.90;;;;;;5049193;28;20442;-72
2024/03/30 02:57:54;;;;;;;0.30;0.30;;;10.30;83.90;;;;;;5049108;28;20041;-72
2024/03/30 03:00:20;;;;;;;0.20;0.20;;;10.30;84.00;;;;;;5049383;28;20041;-73
2024/03/30 03:02:46;;;;;;;0.20;0.20;;;10.40;84.20;;;;;;5048973;28;20499;-73
2024/03/30 03:05:12;;;;;;;0.30;0.30;;;10.30;84.20;;;;;;5049149;28;20102;-73
2024/03/30 03:07:37;;;;;;;0.20;0.20;;;10.40;84.30;;;;;;5032808;28;20041;-73
2024/03/30 03:10:04;;;;;;;0.25;0.25;;;10.30;84.40;;;;;;5049637;28;20049;-74
2024/03/30 03:12:30;;;;;;;0.20;0.20;;;10.30;84.50;;;;;;5046901;28;20131;-74
2024/03/30 03:14:56;;;;;;;0.20;0.20;;;10.20;84.50;;;;;;5049067;28;20110;-74
2024/03/30 03:17:22;;;;;;;0.30;0.30;;;10.20;84.60;;;;;;5049679;28;20068;-74
2024/03/30 03:19:48;;;;;;;0.30;0.30;;;10.20;84.70;;;;;;5083609;28;20386;-74
2024/03/30 03:22:13;;;;;;;0.30;0.20;;;10.20;84.70;;;;;;5076392;28;20046;-74
2024/03/30 03:24:39;;;;;;;0.20;0.20;;;10.20;84.80;;;;;;5076826;28;20371;-75
2024/03/30 03:27:05;;;;;;;0.30;0.30;;;10.20;84.80;;;;;;5111376;28;20120;-74
2024/03/30 03:29:31;;;;;;;0.30;0.30;;;10.20;84.90;;;;;;5093033;28;20054;-74
2024/03/30 03:31:56;;;;;;;0.20;0.20;;;10.20;85.00;;;;;;5093867;28;20043;-74
2024/03/30 03:34:22;;;;;;;0.30;0.30;;;10.20;85.10;;;;;;5093319;28;20546;-74
2024/03/30 03:36:47;;;;;;;0.28;0.28;;;10.20;85.10;;;;;;5094191;28;20440;-74
2024/03/30 03:39:13;;;;;;;0.30;0.30;;;10.10;85.20;;;;;;5114995;28;20509;-75
2024/03/30 03:41:39;;;;;;;0.38;0.30;;;10.10;85.30;;;;;;5095515;28;20078;-74
2024/03/30 03:44:05;;;;;;;0.20;0.20;;;10.10;85.40;;;;;;5114895;28;20081;-74
2024/03/30 03:46:31;;;;;;;0.30;0.30;;;10.10;85.40;;;;;;5115073;28;20043;-74
2024/03/30 03:48:57;;;;;;;0.38;0.38;;;10.10;85.50;;;;;;5114683;28;20046;-74
2024/03/30 03:51:23;;;;;;;0.63;0.40;;;10.00;85.50;;;;;;5096857;28;20122;-74
2024/03/30 03:53:48;;;;;;;0.30;0.30;;;10.10;85.70;;;;;;5080115;28;20048;-74
2024/03/30 03:56:14;;;;;;;0.43;0.30;;;10.10;85.70;;;;;;5114535;28;20147;-74
2024/03/30 03:58:40;;;;;;;0.22;0.22;;;10.00;85.70;;;;;;5115126;28;20127;-74
2024/03/30 04:01:06;;;;;;;0.20;0.20;;;10.00;85.80;;;;;;5114707;28;20443;-74
2024/03/30 04:03:33;;;;;;;0.52;0.50;;;10.10;85.80;;;;;;5115069;28;20051;-74
2024/03/30 04:06:08;;;;;;;0.30;0.30;;;10.00;85.80;;;;;;5079428;28;20044;-74
2024/03/30 04:08:34;;;;;;;0.30;0.30;;;10.10;85.90;;;;;;5114834;28;20047;-74
2024/03/30 04:11:00;;;;;;;0.30;0.30;;;10.10;85.90;;;;;;5095168;28;20044;-74
2024/03/30 04:13:26;;;;;;;0.32;0.32;;;10.10;85.90;;;;;;5079440;28;20040;-74
2024/03/30 04:15:52;;;;;;;0.40;0.40;;;10.00;85.90;;;;;;5096485;28;20085;-74
2024/03/30 04:18:18;;;;;;;0.30;0.30;;;10.10;86.00;;;;;;5096010;28;20044;-74
2024/03/30 04:20:43;;;;;;;0.35;0.35;;;10.00;86.00;;;;;;5114269;28;20443;-74
2024/03/30 04:23:09;;;;;;;0.60;0.50;;;10.10;86.00;;;;;;5114420;28;20131;-74
2024/03/30 04:25:35;;;;;;;0.30;0.30;;;10.00;86.00;;;;;;5096137;28;20051;-74
2024/03/30 04:28:00;;;;;;;0.30;0.30;;;10.10;86.20;;;;;;5114369;28;20401;-74
2024/03/30 04:30:26;;;;;;;0.28;0.28;;;10.00;86.10;;;;;;5095712;28;20043;-74
2024/03/30 04:32:52;;;;;;;0.30;0.30;;;10.00;86.20;;;;;;5114122;28;20126;-74
2024/03/30 04:35:17;;;;;;;0.47;0.47;;;10.00;86.20;;;;;;5095946;28;20445;-74
2024/03/30 04:37:43;;;;;;;0.40;0.30;;;10.10;86.20;;;;;;5095913;28;20028;-74
2024/03/30 04:40:09;;;;;;;0.45;0.30;;;10.00;86.20;;;;;;5078576;28;20035;-74
2024/03/30 04:42:35;;;;;;;0.40;0.40;;;10.10;86.30;;;;;;5095421;28;20048;-74
2024/03/30 04:45:00;;;;;;;0.47;0.38;;;10.10;86.30;;;;;;5078613;28;20414;-74
2024/03/30 04:47:26;;;;;;;0.32;0.32;;;10.10;86.30;;;;;;5093543;28;20040;-74
2024/03/30 04:49:52;;;;;;;0.47;0.47;;;10.10;86.40;;;;;;5078072;28;20131;-74
2024/03/30 04:52:18;;;;;;;0.50;0.50;;;10.00;86.30;;;;;;5095105;28;20046;-74
2024/03/30 04:54:43;;;;;;;0.40;0.40;;;10.10;86.40;;;;;;5095658;28;20405;-74
2024/03/30 04:57:09;;;;;;;0.40;0.40;;;10.00;86.60;;;;;;5113664;28;20495;-74
2024/03/30 04:59:35;;;;;;;0.30;0.30;;;10.10;86.50;;;;;;5113373;28;20027;-74
2024/03/30 05:02:01;;;;;;;0.43;0.40;;;10.10;86.50;;;;;;5076918;28;20126;-74
2024/03/30 05:04:27;;;;;;;0.40;0.40;;;10.10;86.60;;;;;;5078299;28;20421;-75
2024/03/30 05:06:52;;;;;;;0.68;0.32;;;10.00;86.70;;;;;;5113207;28;20058;-74
2024/03/30 05:09:18;;;;;;;0.35;0.35;;;10.10;86.70;;;;;;5113785;28;20434;-75
2024/03/30 05:11:43;;;;;;;0.40;0.40;;;10.00;86.70;;;;;;5093309;28;20051;-74
2024/03/30 05:14:09;;;;;;;0.35;0.35;;;10.00;86.70;;;;;;5095040;28;20043;-74
2024/03/30 05:16:35;;;;;;;0.75;0.50;;;10.00;86.80;;;;;;5095217;28;20040;-74
2024/03/30 05:19:09;;;;;;;0.70;0.50;;;10.00;86.80;;;;;;5113302;28;20031;-74
2024/03/30 05:21:35;;;;;;;0.68;0.60;;;10.10;86.90;;;;;;5093998;28;20035;-75
2024/03/30 05:24:01;;;;;;;0.50;0.50;;;10.00;86.80;;;;;;5093440;28;20036;-74
2024/03/30 05:26:27;;;;;;;0.50;0.50;;;10.00;86.90;;;;;;5094541;28;20032;-74
2024/03/30 05:28:52;;;;;;;0.57;0.55;;;10.00;86.90;;;;;;5095078;28;20492;-74
2024/03/30 05:31:21;;;;;;;0.60;0.60;;;10.10;87.00;;;;;;5093375;28;20081;-74
2024/03/30 05:33:47;;;;;;;0.52;0.52;;;10.00;87.00;;;;;;5094942;28;20044;-74
2024/03/30 05:36:14;;;;;;;0.80;0.60;;;9.90;87.00;;;;;;5077913;28;20400;-74
2024/03/30 05:38:40;;;;;;;0.75;0.45;;;10.00;87.10;;;;;;5094935;28;20059;-74
2024/03/30 05:41:05;;;;;;;0.85;0.65;;;9.90;87.10;;;;;;5094027;28;20036;-74
2024/03/30 05:43:31;;;;;;;0.93;0.60;;;9.90;87.10;;;;;;5113607;28;20458;-74
2024/03/30 05:45:57;;;;;;;0.60;0.60;;;10.00;87.20;;;;;;5077792;28;20560;-74
2024/03/30 05:48:23;;;;;;;0.43;0.43;;;10.00;87.20;;;;;;5113273;28;20047;-74
2024/03/30 05:50:49;;;;;;;0.50;0.50;;;10.10;87.30;;;;;;5112923;28;20122;-74
2024/03/30 05:53:15;;;;;;;0.40;0.32;;;10.00;87.20;;;;;;5095079;28;20126;-74
2024/03/30 05:55:44;;;;;;;0.75;0.63;;;10.00;87.30;;;;;;5094527;28;20480;-74
2024/03/30 05:58:10;;;;;;;0.63;0.50;;;10.00;87.30;;;;;;5094440;28;20027;-74
2024/03/30 06:00:37;;;;;;;0.60;0.60;;;10.00;87.40;;;;;;5113034;28;20500;-73
2024/03/30 06:03:03;;;;;;;0.45;0.45;;;10.00;87.40;;;;;;5094327;28;20110;-73
2024/03/30 06:05:31;;;;;;;0.40;0.40;;;10.00;87.40;;;;;;5093943;28;20043;-74
2024/03/30 06:07:57;;;;;;;0.43;0.43;;;10.00;87.40;;;;;;5077806;28;20078;-73
2024/03/30 06:10:23;;;;;;;0.63;0.50;;;10.00;87.40;;;;;;5077560;28;20469;-74
2024/03/30 06:12:48;;;;;;;0.73;0.60;;;10.00;87.40;;;;;;5092006;28;20047;-74
2024/03/30 06:15:14;;;;;;;0.50;0.50;;;10.00;87.50;;;;;;5112611;28;20123;-74
2024/03/30 06:17:43;;;;;;;0.73;0.70;;;10.00;87.50;;;;;;5112432;28;20046;-74
2024/03/30 06:20:10;;;;;;;1.17;0.77;;;10.00;87.50;;;;;;5112713;28;20032;-74
2024/03/30 06:22:36;;;;;;;0.50;0.50;;;10.00;87.50;;;;;;5077378;28;20083;-74
2024/03/30 06:25:02;;;;;;;0.50;0.50;;;10.10;87.50;;;;;;5077471;28;20040;-73
2024/03/30 06:27:28;;;;;;;0.82;0.60;;;10.10;87.50;;;;;;5094316;28;20043;-74
2024/03/30 06:29:54;;;;;;;0.45;0.45;;;10.10;87.50;;;;;;5112511;28;20508;-73
2024/03/30 06:32:23;;;;;;;0.50;0.50;;;10.10;88.10;;;;;;5076862;28;20051;-73
2024/03/30 06:34:49;;;;;;;0.85;0.63;;;10.10;87.50;;;;;;5093486;28;20039;-73
2024/03/30 06:37:15;;;;;;;0.45;0.45;;;10.10;87.50;;;;;;5094020;28;20055;-73
2024/03/30 06:45:04;;;;;;;0.45;0.45;;;10.10;87.50;;;;;;5111917;28;20105;-73
2024/03/30 06:47:30;;;;;;;0.50;0.50;;;10.20;87.50;;;;;;5093916;28;20044;-73
2024/03/30 06:49:56;;;;;;;0.63;0.60;;;10.20;87.50;;;;;;5093957;28;20050;-73
2024/03/30 06:52:21;;;;;;;0.50;0.50;;;10.10;87.50;;;;;;5093698;28;20071;-73
2024/03/30 06:54:47;;;;;;;0.80;0.60;;;10.20;87.50;;;;;;5093613;28;20047;-73
2024/03/30 06:57:13;;;;;;;0.90;0.68;;;10.20;87.50;;;;;;5112257;28;20040;-73
2024/03/30 06:59:38;;;;;;;0.63;0.60;;;10.20;87.40;;;;;;5111998;28;20040;-73
2024/03/30 07:02:04;;;;;;;0.70;0.70;;;10.20;87.40;;;;;;5111905;28;20039;-73
2024/03/30 07:04:30;;;;;;;1.60;0.80;;;10.30;87.40;;;;;;5077288;28;20047;-73
2024/03/30 07:06:56;;;;;;;1.95;1.08;;;10.30;87.40;;;;;;5091561;28;20131;-73
2024/03/30 07:09:22;;;;;;;0.70;0.60;;;10.40;87.40;;;;;;5112055;28;20109;-74
2024/03/30 07:11:47;;;;;;;0.85;0.70;;;10.40;87.40;;;;;;5114903;28;20036;-73
2024/03/30 07:14:14;;;;;;;1.38;0.90;;;10.40;87.40;;;;;;5115435;28;20054;-72
2024/03/30 07:16:39;;;;;;;0.80;0.75;;;10.40;87.30;;;;;;5115862;28;20031;-72
2024/03/30 07:19:05;;;;;;;1.10;0.90;;;10.50;87.30;;;;;;5097268;28;20367;-72
2024/03/30 07:21:31;;;;;;;1.20;0.80;;;10.50;87.30;;;;;;5115342;28;20115;-72
2024/03/30 07:23:57;;;;;;;1.00;0.80;;;10.50;87.20;;;;;;5115860;28;20027;-72
2024/03/30 07:26:22;;;;;;;1.38;1.02;;;10.60;87.20;;;;;;5115643;28;20033;-72
2024/03/30 07:28:48;;;;;;;0.95;0.80;;;10.70;87.20;;;;;;5097065;28;20127;-72
2024/03/30 07:31:14;;;;;;;0.90;0.80;;;10.60;87.10;;;;;;5097104;28;20115;-72
2024/03/30 07:33:39;;;;;;;0.90;0.80;;;10.70;87.20;;;;;;5097470;28;20067;-72
2024/03/30 07:36:05;;;;;;;1.20;0.93;;;10.70;87.20;;;;;;5115405;28;20039;-72
2024/03/30 07:38:33;;;;;;;1.00;0.90;;;10.80;87.20;;;;;;5115120;28;20493;-73
2024/03/30 07:40:59;;;;;;;0.65;0.60;;;10.80;87.20;;;;;;5096632;28;20374;-72
2024/03/30 07:43:25;;;;;;;1.33;1.00;;;10.80;87.10;;;;;;5115053;28;20520;-72
2024/03/30 07:45:52;;;;;;;0.73;0.65;;;10.90;87.20;;;;;;5115370;28;20473;-72
2024/03/30 07:48:19;;;;;;;0.90;0.75;;;10.90;87.20;;;;;;5095376;28;20048;-73
2024/03/30 07:50:45;;;;;;;0.63;0.63;;;10.90;87.20;;;;;;5096637;28;20127;-72
2024/03/30 07:53:11;;;;;;;0.93;0.68;;;10.90;87.20;;;;;;5096587;28;20663;-73
2024/03/30 07:55:36;;;;;;;0.75;0.60;;;10.90;87.20;;;;;;5079766;28;20040;-73
2024/03/30 07:58:02;;;;;;;0.82;0.80;;;10.90;87.20;;;;;;5115122;28;20039;-72
2024/03/30 08:00:28;;;;;;;0.73;0.70;;;11.00;87.30;;;;;;5114810;28;20092;-72
2024/03/30 08:03:01;;;;;;;0.65;0.60;;;11.00;87.30;;;;;;5115351;28;20036;-72
2024/03/30 08:05:28;;;;;;;0.50;0.50;;;11.00;87.30;;;;;;5115109;28;20405;-72
2024/03/30 08:07:54;;;;;;;1.25;0.93;;;11.00;87.30;;;;;;5114763;28;20039;-73
2024/03/30 08:10:21;;;;;;;0.98;0.88;;;11.00;87.40;;;;;;5114573;28;20044;-72
2024/03/30 08:12:46;;;;;;;0.90;0.80;;;10.90;87.40;;;;;;5114511;28;20047;-72
2024/03/30 08:15:15;;;;;;;1.05;0.70;;;11.00;87.50;;;;;;5114588;28;20463;-73
2024/03/30 08:17:44;;;;;;;0.90;0.80;;;11.00;88.20;;;;;;5114393;28;20489;-72
2024/03/30 08:20:10;;;;;;;0.98;0.80;;;11.00;87.60;;;;;;5114238;28;20044;-72
2024/03/30 08:22:37;;;;;;;0.80;0.60;;;11.10;87.70;;;;;;5113746;28;20051;-72
2024/03/30 08:25:03;;;;;;;1.00;0.90;;;11.10;87.70;;;;;;5114261;28;20505;-72
2024/03/30 08:27:29;;;;;;;0.60;0.60;;;11.10;87.50;;;;;;5078490;28;20128;-72
2024/03/30 08:29:54;;;;;;;0.80;0.70;;;11.20;87.50;;;;;;5096002;28;20047;-72
2024/03/30 08:32:20;;;;;;;0.73;0.73;;;11.30;87.40;;;;;;5114561;28;20071;-72
2024/03/30 08:34:46;;;;;;;0.93;0.80;;;11.40;87.30;;;;;;5096377;28;20031;-72
2024/03/30 08:37:13;;;;;;;1.15;0.90;;;11.50;87.20;;;;;;5114525;28;20046;-72
2024/03/30 08:39:39;;;;;;;1.15;0.80;;;11.50;87.00;;;;;;5091821;28;20031;-72
2024/03/30 08:42:05;;;;;;;0.85;0.75;;;11.60;86.90;;;;;;5088400;28;20048;-72
2024/03/30 08:44:30;;;;;;;1.10;0.80;;;11.70;86.80;;;;;;5114318;28;20059;-72
2024/03/30 08:46:56;;;;;;;0.63;0.50;;;11.90;86.70;;;;;;5095962;28;20177;-72
2024/03/30 08:49:22;;;;;;;0.65;0.57;;;12.00;86.70;;;;;;5113937;28;20059;-72
2024/03/30 08:51:48;;;;;;;0.50;0.50;;;12.10;86.50;;;;;;5114100;28;20047;-72
2024/03/30 08:54:14;;;;;;;0.90;0.80;;;12.20;86.30;;;;;;5095097;28;20135;-72
2024/03/30 08:56:40;;;;;;;1.33;0.70;;;12.30;86.20;;;;;;5095692;28;20082;-72
2024/03/30 08:59:05;;;;;;;0.77;0.68;;;12.40;86.00;;;;;;5113914;28;20028;-72
2024/03/30 09:01:33;;;;;;;1.13;0.75;;;12.50;85.90;;;;;;5096214;28;20032;-72
2024/03/30 09:03:58;;;;;;;0.70;0.70;;;12.50;85.90;;;;;;5076942;28;20056;-72
2024/03/30 09:06:24;;;;;;;0.52;0.52;;;12.70;85.90;;;;;;5114011;28;20065;-72
2024/03/30 09:08:50;;;;;;;0.47;0.47;;;12.70;85.80;;;;;;5094632;28;21496;-72
2024/03/30 09:11:16;;;;;;;0.55;0.52;;;12.80;85.80;;;;;;5114015;28;20077;-72
2024/03/30 09:13:42;;;;;;;0.60;0.60;;;12.90;85.80;;;;;;5078549;28;20075;-71
2024/03/30 09:16:08;;;;;;;1.17;0.68;;;13.00;85.70;;;;;;5078364;28;20071;-72
2024/03/30 09:18:34;;;;;;;0.77;0.70;;;13.10;85.60;;;;;;5113530;28;20031;-72
2024/03/30 09:21:02;;;;;;;0.60;0.60;;;13.20;85.50;;;;;;5113702;28;20508;-72
2024/03/30 09:23:28;;;;;;;0.50;0.50;;;13.20;85.40;;;;;;5113384;28;20547;-72
2024/03/30 09:25:54;;;;;;;0.50;0.50;;;13.30;85.40;;;;;;5094874;28;20062;-72
2024/03/30 09:28:20;;;;;;;0.68;0.52;;;13.30;85.40;;;;;;5113462;28;20489;-72
2024/03/30 09:30:47;;;;;;;0.98;0.60;;;13.40;85.40;;;;;;5093936;28;20040;-72
2024/03/30 09:33:15;;;;;;;0.52;0.43;;;13.40;85.60;;;;;;5090003;28;20140;-72
2024/03/30 09:35:41;;;;;;;1.83;0.55;;;13.50;85.50;;;;;;5113094;28;20046;-72
2024/03/30 09:38:07;;;;;;;0.95;0.70;;;13.40;85.40;;;;;;5094809;28;20098;-73
2024/03/30 09:40:33;;;;;;;0.70;0.65;;;13.50;85.60;;;;;;5113444;28;20120;-73
2024/03/30 09:43:01;;;;;;;0.40;0.40;;;13.40;85.60;;;;;;5113291;28;20046;-72
2024/03/30 09:45:27;;;;;;;0.88;0.50;;;13.40;85.60;;;;;;5113396;28;20520;-72
2024/03/30 09:47:57;;;;;;;0.60;0.50;;;13.50;85.60;;;;;;5112998;28;20134;-72
2024/03/30 09:50:23;;;;;;;0.52;0.50;;;13.60;85.60;;;;;;5093806;28;20039;-72
2024/03/30 09:52:51;;;;;;;1.50;0.60;;;13.60;85.60;;;;;;5112971;28;20091;-72
2024/03/30 09:55:18;;;;;;;0.98;0.57;;;13.70;85.60;;;;;;5092888;28;20083;-72
2024/03/30 09:57:48;;;;;;;1.75;0.70;;;13.70;85.50;;;;;;5094812;28;20039;-73
2024/03/30 10:00:18;;;;;;;0.80;0.50;;;13.70;85.40;;;;;;5113332;28;20047;-72
2024/03/30 10:02:45;;;;;;;2.05;0.60;;;13.80;85.40;;;;;;5112720;28;20035;-72
2024/03/30 10:05:12;;;;;;;0.70;0.60;;;13.90;85.30;;;;;;5094276;28;20490;-72
2024/03/30 10:07:49;;;;;;;0.60;0.50;;;13.90;85.20;;;;;;5077732;28;20499;-72
2024/03/30 10:10:16;;;;;;;1.05;0.60;;;14.00;85.20;;;;;;5112426;28;20039;-72
2024/03/30 10:12:53;;;;;;;1.45;0.63;;;14.10;85.20;;;;;;5094324;28;20577;-72
2024/03/30 10:15:27;;;;;;;1.67;0.73;;;14.30;85.00;;;;;;5078980;28;20036;-72
2024/03/30 10:17:53;;;;;;;0.60;0.45;;;14.40;84.80;;;;;;5112861;28;20043;-72
2024/03/30 10:20:20;;;;;;;0.70;0.60;;;14.50;84.60;;;;;;5095169;28;20032;-72
2024/03/30 10:22:48;;;;;;;0.60;0.60;;;14.50;84.30;;;;;;5094118;28;20043;-72
2024/03/30 10:25:18;;;;;;;1.15;0.65;;;14.50;84.30;;;;;;5077162;28;20054;-72
2024/03/30 10:27:46;;;;;;;0.75;0.60;;;14.60;84.30;;;;;;5093726;28;20139;-72
2024/03/30 10:30:11;;;;;;;1.60;0.50;;;14.50;84.40;;;;;;5112907;28;20397;-73
2024/03/30 10:32:40;;;;;;;0.50;0.50;;;14.50;84.60;;;;;;5093935;28;20048;-72
2024/03/30 10:35:07;;;;;;;1.30;0.60;;;14.50;84.70;;;;;;5112278;28;20078;-74
2024/03/30 10:37:35;;;;;;;0.85;0.43;;;14.50;84.80;;;;;;5112263;28;20040;-73
2024/03/30 10:40:05;;;;;;;0.47;0.45;;;14.50;84.90;;;;;;5112344;28;20027;-72
2024/03/30 10:42:31;;;;;;;0.68;0.43;;;14.50;84.90;;;;;;5093949;28;20050;-72
2024/03/30 10:44:58;;;;;;;0.82;0.55;;;14.60;84.90;;;;;;5062089;28;20039;-72
2024/03/30 10:47:24;;;;;;;0.95;0.60;;;14.50;84.90;;;;;;5116516;28;20043;-72
2024/03/30 10:49:50;;;;;;;1.15;0.50;;;14.60;85.50;;;;;;5115779;28;20085;-72
2024/03/30 10:52:16;;;;;;;0.60;0.47;;;14.60;84.80;;;;;;5115907;28;20497;-72
2024/03/30 10:54:46;;;;;;;1.05;0.52;;;14.70;84.70;;;;;;5097695;28;20212;-72
2024/03/30 10:57:12;;;;;;;2.13;0.50;;;14.70;84.70;;;;;;5080137;28;20074;-72
2024/03/30 10:59:41;;;;;;;1.27;0.47;;;14.80;84.50;;;;;;5080659;28;20067;-72
2024/03/30 11:02:17;;;;;;;0.70;0.40;;;14.90;84.40;;;;;;5098180;28;20035;-72
2024/03/30 11:04:44;;;;;;;1.42;0.50;;;15.00;84.30;;;;;;5096297;28;20048;-72
2024/03/30 11:07:16;;;;;;;1.00;0.60;;;15.10;84.20;;;;;;5096247;28;20382;-72
2024/03/30 11:09:47;;;;;;;1.27;0.55;;;15.10;84.00;;;;;;5115655;28;20065;-72
2024/03/30 11:12:15;;;;;;;1.00;0.70;;;15.10;83.90;;;;;;5036250;28;20041;-73
2024/03/30 11:14:42;;;;;;;1.63;0.60;;;15.10;83.90;;;;;;5019779;28;20041;-72
2024/03/30 11:17:20;;;;;;;0.60;0.50;;;15.10;83.90;;;;;;5036312;28;20037;-72
2024/03/30 11:20:02;;;;;;;0.63;0.40;;;15.10;84.00;;;;;;5035994;28;20037;-72
2024/03/30 11:22:56;;;;;;;1.60;0.60;;;15.10;84.00;;;;;;5052644;28;20114;-72
2024/03/30 11:25:25;;;;;;;0.47;0.47;;;15.10;83.90;;;;;;5052532;28;20068;-71
2024/03/30 11:27:57;;;;;;;1.58;0.68;;;15.10;84.00;;;;;;5003259;28;20068;-72
2024/03/30 11:30:34;;;;;;;0.68;0.43;;;15.10;84.00;;;;;;5052737;28;20052;-72
2024/03/30 11:33:11;;;;;;;0.93;0.60;;;15.20;84.10;;;;;;5035700;28;20533;-72
2024/03/30 11:35:46;;;;;;;2.85;0.63;;;15.30;83.90;;;;;;5053002;28;20080;-71
2024/03/30 11:38:14;;;;;;;2.03;0.70;;;15.30;83.70;;;;;;5050685;28;20048;-72
2024/03/30 11:40:56;;;;;;;1.88;0.70;;;15.30;83.70;;;;;;5035831;28;20045;-71
2024/03/30 11:43:40;;;;;;;1.45;0.52;;;15.40;83.70;;;;;;5088584;28;20051;-71
2024/03/30 11:46:07;;;;;;;1.50;0.60;;;15.40;83.70;;;;;;5099101;28;20043;-74
2024/03/30 11:48:35;;;;;;;2.55;0.90;;;15.40;83.60;;;;;;5079674;28;20084;-72
2024/03/30 11:51:00;;;;;;;2.92;0.82;;;15.30;83.60;;;;;;5115321;28;20039;-71
2024/03/30 11:53:35;;;;;;;1.42;0.63;;;15.30;83.80;;;;;;5115226;28;20042;-71
2024/03/30 11:56:02;;;;;;;4.22;0.88;;;15.20;83.80;;;;;;5096269;28;20040;-71
2024/03/30 11:58:29;;;;;;;4.82;0.90;;;15.20;83.90;;;;;;5114837;28;20040;-71
2024/03/30 12:00:58;;;;;;;4.18;0.90;;;15.30;84.00;;;;;;5096467;28;20468;-72
2024/03/30 12:03:25;;;;;;;2.22;0.93;;;15.30;83.90;;;;;;5096721;28;20078;-71
2024/03/30 12:05:53;;;;;;;4.40;0.90;;;15.50;83.50;;;;;;5114370;28;20097;-73
2024/03/30 12:08:28;;;;;;;1.50;0.90;;;15.50;83.20;;;;;;5096697;28;20062;-73
2024/03/30 12:10:56;;;;;;;4.70;1.00;;;15.50;83.00;;;;;;5095777;28;20554;-73
2024/03/30 12:13:24;;;;;;;4.95;1.10;;;15.50;82.90;;;;;;5114362;28;20504;-73
2024/03/30 12:15:50;;;;;;;3.17;0.82;;;15.40;82.90;;;;;;5094949;28;20048;-74
2024/03/30 12:18:18;;;;;;;4.25;1.20;;;15.40;83.00;;;;;;5079383;28;20031;-73
2024/03/30 12:20:48;;;;;;;3.40;1.40;;;15.40;83.10;;;;;;5114469;28;20504;-73
2024/03/30 12:23:21;;;;;;;2.85;1.00;;;15.40;82.90;;;;;;5078943;28;20042;-71
2024/03/30 12:25:49;;;;;;;3.72;1.00;;;15.50;82.70;;;;;;5096275;28;20528;-73
2024/03/30 12:28:18;;;;;;;3.08;1.13;;;15.60;82.60;;;;;;5114347;28;20540;-72
2024/03/30 12:30:48;;;;;;;4.07;1.20;;;15.60;82.40;;;;;;5095730;28;20067;-72
2024/03/30 12:33:17;;;;;;;4.53;1.10;;;15.60;82.10;;;;;;5096325;28;20048;-72
2024/03/30 12:35:46;;;;;;;4.88;1.25;;;15.70;82.00;;;;;;5051416;28;20037;-71
2024/03/30 12:38:16;;;;;;;3.35;1.20;;;15.70;81.90;;;;;;5034985;28;20040;-71
2024/03/30 12:40:43;;;;;;;3.38;1.10;;;15.70;81.70;;;;;;5035636;28;20159;-72
2024/03/30 12:43:13;;;;;;;2.95;1.00;;;15.60;81.40;;;;;;5051740;28;20049;-71
2024/03/30 12:45:39;;;;;;;3.67;0.95;;;15.60;81.50;;;;;;5035380;28;20041;-71
2024/03/30 12:48:05;;;;;;;3.22;1.17;;;15.70;81.50;;;;;;5032822;28;20099;-71
2024/03/30 12:50:31;;;;;;;4.28;0.98;;;15.70;81.30;;;;;;5051920;28;20032;-71
2024/03/30 12:52:59;;;;;;;3.50;1.13;;;15.60;81.80;;;;;;5018042;28;20141;-70